Potlatch, ID (83855)

6:50 PM PDT on July 28, 2015 (GMT -0700)
Deep Creek Rd | | Change Station
CLOSE
Current Station
Personal Weather Station
Location: Potlatch, ID
Elevation: 2710 ft
Nearby Weather Stations

Elev 2710 ft 47.02 °N, 116.91 °W | Updated 1 minute ago

Partly Cloudy
Partly Cloudy
72.1 °F
Feels Like 76 °F
N
0.0
Wind Variable Wind from West

Today
High -- | Low -- °F
--% Chance of Precip.
Yesterday
High -- | Low -- °F
Precip. -- in
5:22 AM 8:25 PM
Waxing Gibbous, 93% visible
Pressure 30.19 in
Visibility 10.0 miles
Clouds Clear
Heat Index 76 °F
Dew Point 38 °F
Humidity 29%
Rainfall 0.00 in
Snow Depth Not available.
UV 2 out of 12
Pollen 5.40 out of 12
Air Quality Not available.
Flu Activity Not available.
METAR KPUW 290053Z AUTO 25004KT 10SM CLR 24/01 A3021 RMK AO2 SLP222 T02440011

More Conditions Fewer Conditions

Pressure 30.19 in
Visibility 10.0 miles
Clouds Clear
Heat Index 76 °F
Dew Point 38 °F
Humidity 29%
Rainfall 0.00 in
Snow Depth Not available.
UV 2 out of 12
Pollen 5.40 out of 12
Air Quality Not available.
Flu Activity Not available.
METAR KPUW 290053Z AUTO 25004KT 10SM CLR 24/01 A3021 RMK AO2 SLP222 T02440011

More Conditions Fewer Conditions

10-Day Weather Forecast

×

Almanac

Astronomy

Jul. 28, 2015 Rise Set
Actual Time
Civil Twilight
Nautical Twilight
Astronomical Twilight
Moon
Length of Visible Light
Length of Day
Tomorrow will be .
, % of the Moon is Illuminated

Today's Extremes

State Highs State Lows

Community

WunderPhotos

Upload Photos

1,842,002 photos uploaded!

WunderBlogs® & News

Nearby

Air Quality

  Air Quality AQ Index Pollutant
Not available.

Snow Depth

Station Depth Elevation

Earthquake Activity

City Distance Mag. Time & Date
Minimum magnitude displayed is 2.5.

Coastal Water Temperatures

Place Temperature

Stations

Nearby Weather Stations

Station Location Temp. Windchill Dew Point Humidity Wind Precip. Elev Updated Type